Time;durP1;ratioP1;P1;durP2;ratioP2;P2;SDS_P1;SDS_P2;PMS_P1;PMS_P2;Temp;Humidity;BMP_temperature;BMP_pressure;BME280_temperature;BME280_humidity;BME280_pressure;Samples;Min_cycle;Max_cycle;Signal;HPM_P1;HPM_P2
2023/06/30 00:04:17;;;;;;;13.60;12.45;;;;;;;;;;10032770;29;20044;-69
2023/06/30 00:09:14;;;;;;;12.82;11.63;;;;;;;;;;10030190;29;20070;-69
2023/06/30 00:14:11;;;;;;;11.65;10.75;;;;;;;;;;10036323;29;20102;-69
2023/06/30 00:19:08;;;;;;;11.77;10.63;;;;;;;;;;10035686;29;20337;-68
2023/06/30 00:24:04;;;;;;;11.32;10.23;;;;;;;;;;10029826;29;20522;-68
2023/06/30 00:29:01;;;;;;;10.88;10.07;;;;;;;;;;10032235;29;20549;-68
2023/06/30 00:33:58;;;;;;;10.40;9.45;;;;;;;;;;10033333;29;20056;-68
2023/06/30 00:38:55;;;;;;;10.98;10.07;;;;;;;;;;10029591;29;20047;-67
2023/06/30 00:43:51;;;;;;;10.15;9.32;;;;;;;;;;10031168;29;20090;-68
2023/06/30 00:48:47;;;;;;;10.70;9.40;;;;;;;;;;10032667;29;20185;-68
2023/06/30 00:53:44;;;;;;;10.02;9.13;;;;;;;;;;10035000;29;20107;-67
2023/06/30 00:58:41;;;;;;;10.23;9.32;;;;;;;;;;10034798;29;20051;-67
2023/06/30 01:03:38;;;;;;;11.30;9.98;;;;;;;;;;10033041;29;20055;-67
2023/06/30 01:08:40;;;;;;;10.52;9.60;;;;;;;;;;10033699;29;20529;-68
2023/06/30 01:13:38;;;;;;;11.25;10.25;;;;;;;;;;10027287;29;20055;-66
2023/06/30 01:18:36;;;;;;;11.05;10.15;;;;;;;;;;10031091;29;20190;-66
2023/06/30 01:23:37;;;;;;;10.57;9.88;;;;;;;;;;10027504;29;20100;-66
2023/06/30 01:28:34;;;;;;;11.20;10.20;;;;;;;;;;10029895;29;20047;-66
2023/06/30 01:33:30;;;;;;;10.68;9.88;;;;;;;;;;10003485;29;20111;-67
2023/06/30 01:38:27;;;;;;;11.13;10.15;;;;;;;;;;10012856;29;20106;-67
2023/06/30 01:43:24;;;;;;;11.80;10.70;;;;;;;;;;10024288;29;20129;-68
2023/06/30 01:48:20;;;;;;;12.52;11.32;;;;;;;;;;10026062;29;20075;-68
2023/06/30 01:53:16;;;;;;;13.27;12.13;;;;;;;;;;10031342;29;20079;-68
2023/06/30 01:58:25;;;;;;;12.27;11.23;;;;;;;;;;10019644;29;20060;-68
2023/06/30 02:03:21;;;;;;;11.20;10.23;;;;;;;;;;10010860;29;20454;-68
2023/06/30 02:08:17;;;;;;;14.52;12.15;;;;;;;;;;10029714;29;20811;-67
2023/06/30 02:13:14;;;;;;;12.18;11.00;;;;;;;;;;9996459;29;20050;-68
2023/06/30 02:18:13;;;;;;;11.98;10.65;;;;;;;;;;9984738;29;20045;-68
2023/06/30 02:23:09;;;;;;;10.20;9.18;;;;;;;;;;9984593;29;20055;-67
2023/06/30 02:28:06;;;;;;;13.93;11.02;;;;;;;;;;9987136;29;20056;-68
2023/06/30 02:33:02;;;;;;;13.48;10.55;;;;;;;;;;9983619;29;20586;-68
2023/06/30 02:37:58;;;;;;;10.25;9.43;;;;;;;;;;10012402;29;20040;-67
2023/06/30 02:42:54;;;;;;;12.50;11.13;;;;;;;;;;10030805;29;20071;-68
2023/06/30 02:47:51;;;;;;;12.65;10.73;;;;;;;;;;10026338;29;20047;-68
2023/06/30 02:52:47;;;;;;;11.82;10.70;;;;;;;;;;10029543;29;20048;-67
2023/06/30 02:57:43;;;;;;;11.50;10.50;;;;;;;;;;10028244;29;20048;-67
2023/06/30 03:02:40;;;;;;;10.93;10.02;;;;;;;;;;10006577;29;20061;-67
2023/06/30 03:07:36;;;;;;;10.10;9.02;;;;;;;;;;9991678;29;20070;-67
2023/06/30 03:12:33;;;;;;;11.82;9.18;;;;;;;;;;9983970;29;20134;-67
2023/06/30 03:17:29;;;;;;;10.32;9.30;;;;;;;;;;9981778;29;20081;-69
2023/06/30 03:22:25;;;;;;;10.85;9.77;;;;;;;;;;9987038;29;20117;-68
2023/06/30 03:27:22;;;;;;;13.80;9.75;;;;;;;;;;9989614;29;20516;-68
2023/06/30 03:32:18;;;;;;;10.18;8.73;;;;;;;;;;9989915;29;20052;-69
2023/06/30 03:37:15;;;;;;;10.95;9.10;;;;;;;;;;9992439;29;20059;-68
2023/06/30 03:42:11;;;;;;;11.27;9.30;;;;;;;;;;9993646;29;20114;-68
2023/06/30 03:47:07;;;;;;;10.80;9.80;;;;;;;;;;9998019;29;20092;-66
2023/06/30 03:52:04;;;;;;;10.10;9.15;;;;;;;;;;9999086;29;20616;-66
2023/06/30 03:57:00;;;;;;;11.80;9.80;;;;;;;;;;9996090;29;20044;-67
2023/06/30 04:01:57;;;;;;;10.27;9.38;;;;;;;;;;9994412;29;20052;-66
2023/06/30 04:06:53;;;;;;;10.32;9.27;;;;;;;;;;9974578;29;20533;-67
2023/06/30 04:11:49;;;;;;;11.00;10.02;;;;;;;;;;9973005;29;20044;-68
2023/06/30 04:16:46;;;;;;;10.35;9.40;;;;;;;;;;10006866;29;20062;-67
2023/06/30 04:21:42;;;;;;;10.95;10.05;;;;;;;;;;10035889;29;20051;-68
2023/06/30 04:26:40;;;;;;;9.82;8.93;;;;;;;;;;10031635;29;20188;-68
2023/06/30 04:31:36;;;;;;;11.38;10.32;;;;;;;;;;10012571;29;20060;-68
2023/06/30 04:36:36;;;;;;;19.60;10.98;;;;;;;;;;10031292;29;20040;-69
2023/06/30 04:41:36;;;;;;;10.27;9.48;;;;;;;;;;10033893;29;20628;-70
2023/06/30 04:46:33;;;;;;;9.27;8.68;;;;;;;;;;10026362;29;20055;-66
2023/06/30 04:51:36;;;;;;;9.02;8.20;;;;;;;;;;10033521;29;20568;-71
2023/06/30 04:56:33;;;;;;;9.38;8.63;;;;;;;;;;10031644;29;20044;-72
2023/06/30 05:01:32;;;;;;;10.05;9.25;;;;;;;;;;10030013;29;20127;-71
2023/06/30 05:06:32;;;;;;;11.15;10.00;;;;;;;;;;10025167;29;20078;-71
2023/06/30 05:11:29;;;;;;;10.50;9.60;;;;;;;;;;10030609;29;20039;-72
2023/06/30 05:16:26;;;;;;;11.82;10.75;;;;;;;;;;10015807;29;20122;-71
2023/06/30 05:21:25;;;;;;;10.75;9.95;;;;;;;;;;10030875;29;20054;-71
2023/06/30 05:26:25;;;;;;;10.77;9.98;;;;;;;;;;10018403;29;20075;-71
2023/06/30 05:31:31;;;;;;;11.23;10.43;;;;;;;;;;9992089;29;20358;-71
2023/06/30 05:36:28;;;;;;;;;;;;;;;;;;10034274;29;20048;-71
2023/06/30 05:41:30;;;;;;;13.15;10.98;;;;;;;;;;10032917;29;19930;-71
2023/06/30 05:46:39;;;;;;;10.45;9.70;;;;;;;;;;10020203;29;20048;-71
2023/06/30 05:51:38;;;;;;;11.45;10.57;;;;;;;;;;10024906;29;20640;-71
2023/06/30 05:56:39;;;;;;;12.82;11.50;;;;;;;;;;9999496;29;20048;-71
2023/06/30 06:01:44;;;;;;;11.30;10.25;;;;;;;;;;10027528;29;20108;-71
2023/06/30 06:06:46;;;;;;;11.35;10.40;;;;;;;;;;10026175;29;20089;-71
2023/06/30 06:11:45;;;;;;;11.02;10.15;;;;;;;;;;10026556;29;20141;-71
2023/06/30 06:16:45;;;;;;;11.38;10.55;;;;;;;;;;10029697;29;20055;-71
2023/06/30 06:21:44;;;;;;;11.80;10.52;;;;;;;;;;10014207;29;20059;-71
2023/06/30 06:26:41;;;;;;;11.95;10.70;;;;;;;;;;10013878;29;20045;-72
2023/06/30 06:31:44;;;;;;;10.38;9.57;;;;;;;;;;10030607;29;20433;-71
2023/06/30 06:36:40;;;;;;;;;;;;;;;;;;10014303;29;20047;-71
2023/06/30 06:41:42;;;;;;;11.85;10.85;;;;;;;;;;10011696;29;19930;-70
2023/06/30 06:46:41;;;;;;;11.23;10.30;;;;;;;;;;9990916;29;20048;-70
2023/06/30 06:51:43;;;;;;;11.57;10.57;;;;;;;;;;9999633;29;20067;-71
2023/06/30 06:56:44;;;;;;;11.40;10.30;;;;;;;;;;10027585;29;20094;-70
2023/06/30 07:01:41;;;;;;;10.98;10.18;;;;;;;;;;10017928;29;20059;-71
2023/06/30 07:06:40;;;;;;;11.63;9.93;;;;;;;;;;9986271;29;20534;-71
2023/06/30 07:11:37;;;;;;;10.70;8.88;;;;;;;;;;9992375;29;20442;-71
2023/06/30 07:16:42;;;;;;;9.65;8.75;;;;;;;;;;10023740;29;20044;-70
2023/06/30 07:21:47;;;;;;;11.65;10.55;;;;;;;;;;10044075;29;20052;-71
2023/06/30 07:26:43;;;;;;;;;;;;;;;;;;10041708;29;20057;-71
2023/06/30 07:31:40;;;;;;;11.10;10.15;;;;;;;;;;10043343;29;20425;-70
2023/06/30 07:36:42;;;;;;;11.00;9.88;;;;;;;;;;10041659;29;20044;-71
2023/06/30 07:41:44;;;;;;;10.00;9.07;;;;;;;;;;10042368;29;20044;-71
2023/06/30 07:46:41;;;;;;;;;;;;;;;;;;10032497;29;20071;-70
2023/06/30 07:51:39;;;;;;;13.02;8.95;;;;;;;;;;10033732;29;19978;-70
2023/06/30 07:56:36;;;;;;;10.15;8.05;;;;;;;;;;10032135;29;20958;-71
2023/06/30 08:01:38;;;;;;;9.15;8.25;;;;;;;;;;10015978;29;20559;-71
2023/06/30 08:06:34;;;;;;;12.10;8.30;;;;;;;;;;10042439;29;20142;-71
2023/06/30 08:11:36;;;;;;;7.60;6.97;;;;;;;;;;10035827;29;20568;-72
2023/06/30 08:16:38;;;;;;;8.55;7.75;;;;;;;;;;10035236;29;20067;-71
2023/06/30 08:21:43;;;;;;;8.30;7.60;;;;;;;;;;10040977;29;20055;-71
2023/06/30 08:26:43;;;;;;;8.32;7.60;;;;;;;;;;10025795;29;20143;-71
2023/06/30 08:31:45;;;;;;;7.78;7.03;;;;;;;;;;10035075;29;20078;-71
2023/06/30 08:36:52;;;;;;;9.13;7.57;;;;;;;;;;10034200;29;20043;-71
2023/06/30 08:41:55;;;;;;;7.43;6.82;;;;;;;;;;10035480;29;20118;-71
2023/06/30 08:47:02;;;;;;;8.52;7.85;;;;;;;;;;10032816;29;20150;-70
2023/06/30 08:51:59;;;;;;;8.02;7.32;;;;;;;;;;10033912;29;20039;-70
2023/06/30 08:57:05;;;;;;;8.43;7.10;;;;;;;;;;10034235;29;20043;-71
2023/06/30 09:02:08;;;;;;;9.45;7.25;;;;;;;;;;10030471;29;20462;-71
2023/06/30 09:07:10;;;;;;;;;;;;;;;;;;10033720;29;20058;-71
2023/06/30 09:12:08;;;;;;;8.75;8.05;;;;;;;;;;10035336;29;19927;-71
2023/06/30 09:17:11;;;;;;;8.18;7.57;;;;;;;;;;10033483;29;20040;-71
2023/06/30 09:22:14;;;;;;;8.65;7.75;;;;;;;;;;10034841;29;20070;-71
2023/06/30 09:27:34;;;;;;;8.60;7.75;;;;;;;;;;10015887;29;20056;-71
2023/06/30 09:32:34;;;;;;;8.40;7.55;;;;;;;;;;10034383;29;20226;-72
2023/06/30 09:37:40;;;;;;;8.18;7.47;;;;;;;;;;10027603;29;20446;-72
2023/06/30 09:42:40;;;;;;;8.70;7.80;;;;;;;;;;10027712;29;20058;-71
2023/06/30 09:47:39;;;;;;;8.80;8.10;;;;;;;;;;10029285;29;20059;-71
2023/06/30 09:52:40;;;;;;;8.18;7.40;;;;;;;;;;10013940;29;20039;-71
2023/06/30 09:57:39;;;;;;;8.02;7.43;;;;;;;;;;10015624;29;20048;-71
2023/06/30 10:02:40;;;;;;;8.02;7.40;;;;;;;;;;10033320;29;20107;-71
2023/06/30 10:07:41;;;;;;;8.23;7.50;;;;;;;;;;10032411;29;20054;-71
2023/06/30 10:12:46;;;;;;;8.70;7.93;;;;;;;;;;10011240;29;20554;-71
2023/06/30 10:17:52;;;;;;;8.68;7.47;;;;;;;;;;9970655;29;20104;-71
2023/06/30 10:23:00;;;;;;;8.90;8.00;;;;;;;;;;10016060;29;20473;-71
2023/06/30 10:27:58;;;;;;;8.30;7.38;;;;;;;;;;10030631;29;20056;-71
2023/06/30 10:32:57;;;;;;;8.02;7.43;;;;;;;;;;10014739;29;20752;-71
2023/06/30 10:37:57;;;;;;;8.63;7.72;;;;;;;;;;10025806;29;20059;-71
2023/06/30 10:42:58;;;;;;;7.47;6.77;;;;;;;;;;10023829;29;20043;-71
2023/06/30 10:47:57;;;;;;;7.90;7.10;;;;;;;;;;10027257;29;20047;-71
2023/06/30 10:52:56;;;;;;;7.20;6.53;;;;;;;;;;10031224;29;20080;-71
2023/06/30 10:57:58;;;;;;;7.10;6.55;;;;;;;;;;10028129;29;20123;-71
2023/06/30 11:02:55;;;;;;;6.82;6.22;;;;;;;;;;10021711;29;20052;-72
2023/06/30 11:07:55;;;;;;;7.28;6.57;;;;;;;;;;10029076;29;20051;-72
2023/06/30 11:13:15;;;;;;;7.32;6.63;;;;;;;;;;10027258;29;20059;-71
2023/06/30 11:18:15;;;;;;;7.97;6.85;;;;;;;;;;10027634;29;20046;-71
2023/06/30 11:23:22;;;;;;;8.57;6.75;;;;;;;;;;10005485;29;20513;-71
2023/06/30 11:28:19;;;;;;;7.47;6.78;;;;;;;;;;10029572;29;20135;-71
2023/06/30 11:33:21;;;;;;;9.55;7.40;;;;;;;;;;10017739;29;20048;-71
2023/06/30 11:38:20;;;;;;;6.85;6.35;;;;;;;;;;10008701;29;20083;-71
2023/06/30 11:43:22;;;;;;;7.95;6.50;;;;;;;;;;10019573;29;20044;-71
2023/06/30 11:48:21;;;;;;;7.55;6.65;;;;;;;;;;10016533;29;20147;-71
2023/06/30 11:53:20;;;;;;;7.18;6.47;;;;;;;;;;10030114;29;20174;-71
2023/06/30 11:58:24;;;;;;;7.35;6.00;;;;;;;;;;10012910;29;20498;-72
2023/06/30 12:03:28;;;;;;;6.70;6.10;;;;;;;;;;10007205;29;20055;-71
2023/06/30 12:08:30;;;;;;;7.32;6.55;;;;;;;;;;10034764;29;20502;-71
2023/06/30 12:13:36;;;;;;;6.90;6.30;;;;;;;;;;10027663;29;20087;-71
2023/06/30 12:18:38;;;;;;;7.13;5.90;;;;;;;;;;9985431;29;20628;-71
2023/06/30 12:24:01;;;;;;;6.68;6.07;;;;;;;;;;9992867;29;20068;-72
2023/06/30 12:29:04;;;;;;;7.55;5.97;;;;;;;;;;10026276;29;20564;-71
2023/06/30 12:34:04;;;;;;;7.10;6.47;;;;;;;;;;10036645;29;20055;-71
2023/06/30 12:39:03;;;;;;;6.28;5.72;;;;;;;;;;10020046;29;20036;-72
2023/06/30 12:44:03;;;;;;;6.63;6.00;;;;;;;;;;10031621;29;20110;-71
2023/06/30 12:49:12;;;;;;;8.02;7.07;;;;;;;;;;10033994;29;20130;-71
2023/06/30 12:54:18;;;;;;;6.30;5.70;;;;;;;;;;10027050;29;20050;-71
2023/06/30 12:59:18;;;;;;;7.05;6.35;;;;;;;;;;10028939;29;20565;-71
2023/06/30 13:04:19;;;;;;;6.47;5.50;;;;;;;;;;9996995;29;20414;-70
2023/06/30 13:09:20;;;;;;;6.40;5.80;;;;;;;;;;9993593;29;20055;-71
2023/06/30 13:14:21;;;;;;;6.32;5.80;;;;;;;;;;9997212;29;20545;-71
2023/06/30 13:19:23;;;;;;;6.78;6.18;;;;;;;;;;9999578;29;20517;-71
2023/06/30 13:24:23;;;;;;;7.75;5.63;;;;;;;;;;9991467;29;20842;-71
2023/06/30 13:29:28;;;;;;;6.10;5.55;;;;;;;;;;9969270;29;20111;-71
2023/06/30 13:34:31;;;;;;;9.50;6.15;;;;;;;;;;9996696;29;20044;-71
2023/06/30 13:39:28;;;;;;;5.85;5.35;;;;;;;;;;9989113;29;20075;-71
2023/06/30 13:44:27;;;;;;;6.00;5.43;;;;;;;;;;9995707;29;20059;-71
2023/06/30 13:49:29;;;;;;;6.55;5.72;;;;;;;;;;9969629;29;20087;-72
2023/06/30 13:54:34;;;;;;;6.78;6.10;;;;;;;;;;9965315;29;20060;-75
2023/06/30 13:59:30;;;;;;;6.40;5.90;;;;;;;;;;9973111;29;20072;-71
2023/06/30 14:04:27;;;;;;;6.55;5.95;;;;;;;;;;9976873;29;20075;-71
2023/06/30 14:09:23;;;;;;;6.85;6.20;;;;;;;;;;9991115;29;20139;-71
2023/06/30 14:14:19;;;;;;;6.82;6.20;;;;;;;;;;9998981;29;20044;-71
2023/06/30 14:19:16;;;;;;;7.03;6.43;;;;;;;;;;9992919;29;20742;-71
2023/06/30 14:24:12;;;;;;;7.00;6.40;;;;;;;;;;9986865;29;20107;-72
2023/06/30 14:29:08;;;;;;;6.57;6.03;;;;;;;;;;9986671;29;20052;-71
2023/06/30 14:34:05;;;;;;;8.60;6.05;;;;;;;;;;9994890;29;20171;-72
2023/06/30 14:39:02;;;;;;;7.00;6.30;;;;;;;;;;9986619;29;20475;-72
2023/06/30 14:43:59;;;;;;;7.35;6.28;;;;;;;;;;9994452;29;20052;-71
2023/06/30 14:48:57;;;;;;;6.30;5.70;;;;;;;;;;9983511;29;20052;-72
2023/06/30 14:53:53;;;;;;;7.80;5.70;;;;;;;;;;9982090;29;20064;-72
2023/06/30 14:58:50;;;;;;;6.68;6.07;;;;;;;;;;9990705;29;20039;-72
2023/06/30 15:03:46;;;;;;;6.22;5.72;;;;;;;;;;9989268;29;20419;-72
2023/06/30 15:08:43;;;;;;;9.68;7.18;;;;;;;;;;10001873;29;20676;-72
2023/06/30 15:13:39;;;;;;;6.72;5.72;;;;;;;;;;10029738;29;20529;-72
2023/06/30 15:18:35;;;;;;;6.85;6.18;;;;;;;;;;10025163;29;20686;-72
2023/06/30 15:23:31;;;;;;;7.47;6.70;;;;;;;;;;10029416;29;20043;-71
2023/06/30 15:28:28;;;;;;;8.00;6.88;;;;;;;;;;10005478;29;20135;-71
2023/06/30 15:33:25;;;;;;;8.52;6.80;;;;;;;;;;10033597;29;20458;-72
2023/06/30 15:38:21;;;;;;;6.20;5.70;;;;;;;;;;10036102;29;20502;-71
2023/06/30 15:43:18;;;;;;;6.43;5.93;;;;;;;;;;10022606;29;20104;-72
2023/06/30 15:48:14;;;;;;;6.60;5.97;;;;;;;;;;10033594;29;20514;-71
2023/06/30 15:53:10;;;;;;;6.95;6.05;;;;;;;;;;10032869;29;20082;-71
2023/06/30 15:58:07;;;;;;;6.82;6.13;;;;;;;;;;10033711;29;20051;-70
2023/06/30 16:03:03;;;;;;;7.57;6.88;;;;;;;;;;10035869;29;20077;-70
2023/06/30 16:08:00;;;;;;;8.30;6.68;;;;;;;;;;10033135;29;20075;-71
2023/06/30 16:12:56;;;;;;;6.78;6.13;;;;;;;;;;10039621;29;20047;-70
2023/06/30 16:17:53;;;;;;;7.75;6.30;;;;;;;;;;10035103;29;20040;-72
2023/06/30 16:22:49;;;;;;;7.60;6.63;;;;;;;;;;10022759;29;20506;-70
2023/06/30 16:27:45;;;;;;;6.03;5.43;;;;;;;;;;10025802;29;20797;-71
2023/06/30 16:32:42;;;;;;;6.70;5.90;;;;;;;;;;10030905;29;20115;-71
2023/06/30 16:37:38;;;;;;;8.38;6.30;;;;;;;;;;10027737;29;20532;-71
2023/06/30 16:42:34;;;;;;;7.00;6.30;;;;;;;;;;10037342;29;20051;-71
2023/06/30 16:47:33;;;;;;;8.30;6.20;;;;;;;;;;10019840;29;20072;-71
2023/06/30 16:52:30;;;;;;;13.38;5.70;;;;;;;;;;10015653;29;20056;-71
2023/06/30 16:57:27;;;;;;;6.18;5.57;;;;;;;;;;10036851;29;20569;-71
2023/06/30 17:02:23;;;;;;;6.70;6.10;;;;;;;;;;10034190;29;20082;-71
2023/06/30 17:07:19;;;;;;;7.78;6.75;;;;;;;;;;10033445;29;20079;-72
2023/06/30 17:12:16;;;;;;;6.35;5.78;;;;;;;;;;10036514;29;20079;-70
2023/06/30 17:17:13;;;;;;;6.90;6.15;;;;;;;;;;10036303;29;20051;-71
2023/06/30 17:22:09;;;;;;;6.32;5.80;;;;;;;;;;10036128;29;20458;-71
2023/06/30 17:27:05;;;;;;;8.35;6.30;;;;;;;;;;10033463;29;20075;-69
2023/06/30 17:32:02;;;;;;;6.90;6.22;;;;;;;;;;10034170;29;20082;-71
2023/06/30 17:37:05;;;;;;;7.10;5.65;;;;;;;;;;10018883;29;20040;-71
2023/06/30 17:42:01;;;;;;;6.82;6.13;;;;;;;;;;10031866;29;20040;-71
2023/06/30 17:46:58;;;;;;;6.20;5.60;;;;;;;;;;10015227;29;20067;-71
2023/06/30 17:51:54;;;;;;;6.72;5.93;;;;;;;;;;10035103;29;20055;-71
2023/06/30 17:56:51;;;;;;;5.90;5.30;;;;;;;;;;10034427;29;20564;-70
2023/06/30 18:01:47;;;;;;;6.18;5.57;;;;;;;;;;10023054;29;20055;-72
2023/06/30 18:07:02;;;;;;;7.60;6.88;;;;;;;;;;10032609;29;20427;-71
2023/06/30 18:12:01;;;;;;;7.18;5.55;;;;;;;;;;10034236;29;20054;-71
2023/06/30 18:16:59;;;;;;;7.60;5.60;;;;;;;;;;9996613;29;20052;-71
2023/06/30 18:21:55;;;;;;;8.48;7.00;;;;;;;;;;10006273;29;20059;-71
2023/06/30 18:26:51;;;;;;;6.93;6.18;;;;;;;;;;10032039;29;20122;-70
2023/06/30 18:31:48;;;;;;;6.80;5.72;;;;;;;;;;10032514;29;20040;-71
2023/06/30 18:36:44;;;;;;;6.93;6.15;;;;;;;;;;10033328;29;20047;-70
2023/06/30 18:41:42;;;;;;;7.20;5.90;;;;;;;;;;10034730;29;21815;-71
2023/06/30 18:46:41;;;;;;;6.93;6.22;;;;;;;;;;10029698;29;20099;-71
2023/06/30 18:51:38;;;;;;;6.40;5.80;;;;;;;;;;10024187;29;20078;-70
2023/06/30 18:56:34;;;;;;;6.65;6.05;;;;;;;;;;10033090;29;20095;-71
2023/06/30 19:01:31;;;;;;;7.30;6.00;;;;;;;;;;10027791;29;20047;-71
2023/06/30 19:06:27;;;;;;;6.18;5.57;;;;;;;;;;10028852;29;20062;-71
2023/06/30 19:11:24;;;;;;;6.13;5.43;;;;;;;;;;10026544;29;20047;-71
2023/06/30 19:16:20;;;;;;;6.70;5.88;;;;;;;;;;10023507;29;20056;-71
2023/06/30 19:21:16;;;;;;;6.00;5.30;;;;;;;;;;9994076;29;20044;-71
2023/06/30 19:26:13;;;;;;;6.97;6.28;;;;;;;;;;10000835;29;20453;-71
2023/06/30 19:31:09;;;;;;;6.20;5.60;;;;;;;;;;10022729;29;20458;-70
2023/06/30 19:36:06;;;;;;;6.45;5.85;;;;;;;;;;9993740;29;20060;-71
2023/06/30 19:41:02;;;;;;;8.80;5.85;;;;;;;;;;9975644;29;20439;-71
2023/06/30 19:45:59;;;;;;;6.20;5.20;;;;;;;;;;9973755;29;20075;-71
2023/06/30 19:50:56;;;;;;;5.93;5.38;;;;;;;;;;9979629;29;20045;-71
2023/06/30 19:55:52;;;;;;;7.85;5.93;;;;;;;;;;9978506;29;20055;-71
2023/06/30 20:00:48;;;;;;;9.50;6.40;;;;;;;;;;9985899;29;20076;-71
2023/06/30 20:05:45;;;;;;;6.70;6.07;;;;;;;;;;10027959;29;20454;-71
2023/06/30 20:10:41;;;;;;;6.85;6.20;;;;;;;;;;10027268;29;20514;-71
2023/06/30 20:15:38;;;;;;;6.68;6.05;;;;;;;;;;10030736;29;20059;-71
2023/06/30 20:20:34;;;;;;;7.03;6.35;;;;;;;;;;10026120;29;20047;-71
2023/06/30 20:25:31;;;;;;;7.75;6.28;;;;;;;;;;10036849;29;20056;-71
2023/06/30 20:30:27;;;;;;;7.22;6.53;;;;;;;;;;10036918;29;20052;-71
2023/06/30 20:35:23;;;;;;;8.00;7.30;;;;;;;;;;10020685;29;20051;-71
2023/06/30 20:40:19;;;;;;;7.18;6.47;;;;;;;;;;10035331;29;20426;-71
2023/06/30 20:45:16;;;;;;;9.07;6.78;;;;;;;;;;10028866;29;20055;-71
2023/06/30 20:50:12;;;;;;;7.28;6.63;;;;;;;;;;10034694;29;20053;-71
2023/06/30 20:55:08;;;;;;;7.28;6.50;;;;;;;;;;10036910;29;20047;-71
2023/06/30 21:00:05;;;;;;;7.28;6.47;;;;;;;;;;9979300;29;20052;-71
2023/06/30 21:05:02;;;;;;;7.20;6.57;;;;;;;;;;9996281;29;20498;-71
2023/06/30 21:09:59;;;;;;;7.72;6.93;;;;;;;;;;9995432;29;20134;-70
2023/06/30 21:14:55;;;;;;;8.50;6.90;;;;;;;;;;9999339;29;20103;-70
2023/06/30 21:19:54;;;;;;;7.40;6.57;;;;;;;;;;9999218;29;20613;-71
2023/06/30 21:24:50;;;;;;;9.48;7.82;;;;;;;;;;9994699;29;20055;-71
2023/06/30 21:29:47;;;;;;;8.25;7.28;;;;;;;;;;9987409;29;20569;-71
2023/06/30 21:34:43;;;;;;;8.40;7.60;;;;;;;;;;9992493;29;20052;-70
2023/06/30 21:39:40;;;;;;;10.52;7.80;;;;;;;;;;9974558;29;20052;-69
2023/06/30 21:44:36;;;;;;;8.00;7.22;;;;;;;;;;9969038;29;20084;-67
2023/06/30 21:49:32;;;;;;;9.45;8.23;;;;;;;;;;9987966;29;20056;-69
2023/06/30 21:54:29;;;;;;;9.48;7.90;;;;;;;;;;9993229;29;20075;-69
2023/06/30 21:59:43;;;;;;;8.10;7.30;;;;;;;;;;9990655;29;20040;-69
2023/06/30 22:04:40;;;;;;;7.43;6.72;;;;;;;;;;9988953;29;20064;-70
2023/06/30 22:09:37;;;;;;;8.95;7.15;;;;;;;;;;9992303;29;20136;-70
2023/06/30 22:14:34;;;;;;;7.25;6.55;;;;;;;;;;9989701;29;20103;-70
2023/06/30 22:19:31;;;;;;;7.28;6.43;;;;;;;;;;9984751;29;20083;-70
2023/06/30 22:24:30;;;;;;;7.22;6.50;;;;;;;;;;9981093;29;20151;-70
2023/06/30 22:29:26;;;;;;;8.73;7.63;;;;;;;;;;9990856;29;20052;-70
2023/06/30 22:34:23;;;;;;;9.73;6.82;;;;;;;;;;9994339;29;20044;-70
2023/06/30 22:39:20;;;;;;;6.93;6.32;;;;;;;;;;9992339;29;20050;-70
2023/06/30 22:44:16;;;;;;;8.50;6.80;;;;;;;;;;9983635;29;20104;-70
2023/06/30 22:49:12;;;;;;;8.07;7.28;;;;;;;;;;9992234;29;20104;-69
2023/06/30 22:54:09;;;;;;;7.95;7.15;;;;;;;;;;9994444;29;20507;-68
2023/06/30 22:59:05;;;;;;;8.88;7.07;;;;;;;;;;9988154;29;20039;-67
2023/06/30 23:04:01;;;;;;;12.30;7.30;;;;;;;;;;9993773;29;20533;-67
2023/06/30 23:08:58;;;;;;;9.50;7.10;;;;;;;;;;9989788;29;20103;-68
2023/06/30 23:13:54;;;;;;;7.75;6.80;;;;;;;;;;9989915;29;20045;-68
2023/06/30 23:18:51;;;;;;;8.35;6.88;;;;;;;;;;9994104;29;20611;-68
2023/06/30 23:23:47;;;;;;;7.70;7.00;;;;;;;;;;9990442;29;20514;-68
2023/06/30 23:28:48;;;;;;;9.00;6.65;;;;;;;;;;9993035;29;20094;-68
2023/06/30 23:33:50;;;;;;;8.45;5.90;;;;;;;;;;9993141;29;20491;-67
2023/06/30 23:38:46;;;;;;;8.30;7.03;;;;;;;;;;9998002;29;20048;-68
2023/06/30 23:43:42;;;;;;;9.95;6.85;;;;;;;;;;9984740;29;20507;-67
2023/06/30 23:48:39;;;;;;;8.90;7.28;;;;;;;;;;9992118;29;20083;-66
2023/06/30 23:53:35;;;;;;;7.80;7.00;;;;;;;;;;9982841;29;20091;-67
2023/06/30 23:58:32;;;;;;;7.07;6.43;;;;;;;;;;9992541;29;20052;-66
